createdAt,value
2023-03-29T00:25:12.739Z,1.63
2023-03-29T00:30:16.539Z,1.35
2023-03-29T00:35:19.654Z,1.80
2023-03-29T00:40:23.781Z,2.40
2023-03-29T00:45:28.357Z,1.88
2023-03-29T00:50:37.070Z,1.70
2023-03-29T00:55:48.799Z,2.03
2023-03-29T01:00:59.335Z,1.83
2023-03-29T01:06:07.265Z,2.37
2023-03-29T01:11:18.361Z,2.05
2023-03-29T01:16:23.278Z,1.50
2023-03-29T01:21:32.988Z,1.52
2023-03-29T01:26:50.910Z,1.45
2023-03-29T01:32:00.698Z,1.93
2023-03-29T01:37:11.061Z,1.33
2023-03-29T01:42:41.509Z,1.00
2023-03-29T01:47:59.070Z,1.60
2023-03-29T01:53:10.116Z,1.98
2023-03-29T01:58:16.472Z,2.07
2023-03-29T02:03:24.703Z,2.88
2023-03-29T02:08:29.832Z,2.67
2023-03-29T02:13:33.630Z,3.75
2023-03-29T02:18:38.559Z,2.30
2023-03-29T02:23:45.518Z,1.87
2023-03-29T02:28:48.877Z,1.60
2023-03-29T02:33:58.661Z,1.70
2023-03-29T02:39:04.616Z,1.48
2023-03-29T02:44:13.141Z,1.88
2023-03-29T02:49:18.313Z,2.40
2023-03-29T02:54:25.402Z,2.55
2023-03-29T02:59:29.776Z,3.00
2023-03-29T03:04:33.834Z,3.60
2023-03-29T03:09:37.327Z,3.17
2023-03-29T03:14:40.079Z,2.00
2023-03-29T03:19:44.185Z,5.15
2023-03-29T03:24:46.759Z,4.63
2023-03-29T03:29:49.693Z,2.60
2023-03-29T03:34:53.757Z,4.28
2023-03-29T03:40:01.610Z,5.70
2023-03-29T03:45:07.914Z,5.20
2023-03-29T03:50:20.883Z,2.70
2023-03-29T03:55:23.966Z,2.08
2023-03-29T04:00:44.781Z,3.17
2023-03-29T04:06:12.726Z,2.83
2023-03-29T04:11:47.510Z,5.13
2023-03-29T04:16:50.116Z,5.57
2023-03-29T04:22:12.435Z,5.05
2023-03-29T04:27:15.028Z,3.55
2023-03-29T04:32:17.734Z,3.17
2023-03-29T04:37:33.845Z,3.15
2023-03-29T04:42:37.608Z,4.60
2023-03-29T04:47:42.740Z,3.20
2023-03-29T04:52:52.593Z,3.30
2023-03-29T04:57:56.646Z,3.40
2023-03-29T05:03:06.677Z,4.40
2023-03-29T05:08:14.923Z,3.87
2023-03-29T05:13:40.252Z,6.60
2023-03-29T05:18:42.962Z,6.25
2023-03-29T05:23:48.280Z,6.90
2023-03-29T05:29:23.727Z,6.28
2023-03-29T05:34:34.885Z,6.53
2023-03-29T05:39:40.216Z,7.88
2023-03-29T05:44:43.486Z,6.57
2023-03-29T05:49:53.995Z,8.23
2023-03-29T05:55:02.312Z,11.38
2023-03-29T06:00:08.017Z,6.00
2023-03-29T06:05:22.449Z,4.05
2023-03-29T06:10:48.167Z,3.40
2023-03-29T06:16:09.699Z,3.60
2023-03-29T06:21:13.648Z,3.95
2023-03-29T06:26:18.208Z,3.50
2023-03-29T06:31:22.626Z,4.85
2023-03-29T06:36:29.702Z,7.53
2023-03-29T06:41:34.004Z,5.07
2023-03-29T06:46:50.151Z,4.53
2023-03-29T06:51:56.388Z,4.93
2023-03-29T06:57:03.072Z,6.20
2023-03-29T07:02:10.218Z,11.80
2023-03-29T07:07:28.329Z,5.20
2023-03-29T07:12:45.780Z,7.78
2023-03-29T07:17:54.330Z,4.30
2023-03-29T07:22:58.103Z,3.80
2023-03-29T07:28:03.203Z,2.95
2023-03-29T07:33:05.942Z,2.60
2023-03-29T07:38:15.667Z,3.88
2023-03-29T07:43:26.173Z,4.97
2023-03-29T07:48:29.708Z,3.78
2023-03-29T07:53:38.330Z,4.30
2023-03-29T07:58:49.597Z,3.93
2023-03-29T08:03:54.228Z,2.92
2023-03-29T08:09:06.695Z,2.10
2023-03-29T08:14:11.138Z,5.68
2023-03-29T08:19:27.660Z,3.35
2023-03-29T08:24:42.620Z,3.70
2023-03-29T08:29:50.287Z,2.35
2023-03-29T08:34:55.917Z,2.70
2023-03-29T08:40:14.215Z,2.40
2023-03-29T08:45:51.006Z,2.13
2023-03-29T08:51:03.365Z,2.17
2023-03-29T08:56:19.570Z,2.63
2023-03-29T09:02:13.456Z,2.10
2023-03-29T09:07:16.998Z,1.70
2023-03-29T09:12:39.911Z,2.65
2023-03-29T09:17:59.428Z,1.50
2023-03-29T09:23:26.430Z,2.55
2023-03-29T09:29:01.812Z,2.42
2023-03-29T09:34:23.881Z,2.60
2023-03-29T09:39:36.554Z,3.28
2023-03-29T09:44:52.014Z,8.00
2023-03-29T09:50:16.643Z,4.70
2023-03-29T09:55:35.553Z,4.32
2023-03-29T10:00:46.797Z,3.60
2023-03-29T10:05:57.035Z,4.22
2023-03-29T10:11:08.969Z,4.27
2023-03-29T10:16:21.576Z,3.38
2023-03-29T10:21:31.450Z,6.00
2023-03-29T10:26:38.593Z,10.07
2023-03-29T10:31:43.497Z,5.95
2023-03-29T10:36:58.323Z,3.30
2023-03-29T10:42:06.239Z,7.18
2023-03-29T10:47:16.456Z,9.02
2023-03-29T10:52:22.313Z,4.53
2023-03-29T10:57:43.687Z,11.43
2023-03-29T11:03:24.735Z,6.40
2023-03-29T11:08:56.994Z,3.10
2023-03-29T11:14:11.380Z,18.02
2023-03-29T11:19:54.633Z,4.70
2023-03-29T11:25:23.709Z,5.43
2023-03-29T11:30:37.838Z,4.40
2023-03-29T11:35:52.313Z,4.80
2023-03-29T11:41:08.397Z,3.47
2023-03-29T11:46:19.027Z,1.80
2023-03-29T11:51:29.011Z,2.72
2023-03-29T11:56:40.548Z,2.73
2023-03-29T12:01:52.879Z,2.65
2023-03-29T12:07:11.687Z,1.95
2023-03-29T12:12:25.920Z,3.20
2023-03-29T12:17:37.410Z,2.53
2023-03-29T12:22:41.184Z,2.70
2023-03-29T12:28:02.774Z,2.20
2023-03-29T12:33:41.870Z,2.05
2023-03-29T12:38:56.722Z,1.60
2023-03-29T12:44:23.934Z,3.55
2023-03-29T12:49:38.939Z,8.27
2023-03-29T12:54:41.456Z,13.07
2023-03-29T12:59:48.710Z,6.85
2023-03-29T13:04:57.668Z,6.03
2023-03-29T13:10:02.505Z,7.75
2023-03-29T13:15:23.301Z,3.08
2023-03-29T13:20:45.873Z,7.50
2023-03-29T13:26:19.499Z,6.22
2023-03-29T13:31:35.259Z,4.50
2023-03-29T13:37:01.494Z,2.25
2023-03-29T13:42:19.284Z,1.90
2023-03-29T13:47:58.237Z,3.40
2023-03-29T13:53:15.812Z,3.90
2023-03-29T13:58:32.355Z,3.00
2023-03-29T14:03:44.245Z,2.33
2023-03-29T14:08:49.086Z,2.38
2023-03-29T14:13:57.281Z,3.70
2023-03-29T14:19:04.858Z,3.63
2023-03-29T14:24:13.192Z,3.77
2023-03-29T14:29:16.050Z,3.75
2023-03-29T14:34:20.339Z,3.75
2023-03-29T14:39:23.488Z,5.47
2023-03-29T14:44:30.794Z,3.72
2023-03-29T14:49:34.924Z,3.70
2023-03-29T14:54:48.144Z,3.65
2023-03-29T14:59:54.952Z,2.35
2023-03-29T15:05:02.358Z,1.73
2023-03-29T15:10:06.582Z,2.33
2023-03-29T15:15:12.805Z,2.03
2023-03-29T15:20:24.410Z,2.23
2023-03-29T15:25:32.597Z,2.30
2023-03-29T15:30:39.486Z,2.20
2023-03-29T15:35:49.157Z,2.35
2023-03-29T15:40:51.588Z,5.38
2023-03-29T15:45:54.097Z,4.07
2023-03-29T15:51:01.508Z,3.78
2023-03-29T15:56:08.633Z,3.67
2023-03-29T16:01:22.867Z,2.45
2023-03-29T16:06:26.968Z,4.20
2023-03-29T16:11:29.679Z,3.83
2023-03-29T16:16:32.060Z,2.90
2023-03-29T16:21:36.230Z,2.38
2023-03-29T16:26:38.671Z,2.50
2023-03-29T16:31:44.105Z,2.58
2023-03-29T16:36:49.461Z,3.00
2023-03-29T16:41:52.180Z,2.88
2023-03-29T16:46:54.864Z,2.85
2023-03-29T16:51:58.950Z,2.60
2023-03-29T16:57:04.340Z,2.80
2023-03-29T17:02:06.756Z,3.00
2023-03-29T17:07:10.617Z,3.05
2023-03-29T17:12:15.919Z,3.90
2023-03-29T17:17:19.010Z,3.43
2023-03-29T17:22:23.302Z,3.42
2023-03-29T17:27:28.691Z,3.57
2023-03-29T17:32:31.198Z,2.75
2023-03-29T17:37:35.601Z,3.28
2023-03-29T17:42:41.361Z,3.40
2023-03-29T17:47:44.085Z,3.90
2023-03-29T17:52:48.518Z,3.70
2023-03-29T17:57:53.703Z,4.18
2023-03-29T18:02:56.425Z,3.35
2023-03-29T18:08:00.602Z,3.47
2023-03-29T18:13:03.716Z,3.45
2023-03-29T18:18:06.622Z,3.30
2023-03-29T18:23:10.713Z,2.55
2023-03-29T18:28:13.449Z,3.47
2023-03-29T18:33:18.966Z,3.40
2023-03-29T18:38:23.139Z,3.40
2023-03-29T18:43:25.585Z,3.47
2023-03-29T18:48:28.186Z,3.42
2023-03-29T18:53:32.136Z,3.50
2023-03-29T18:58:35.617Z,3.97
2023-03-29T19:03:38.365Z,4.15
2023-03-29T19:08:42.693Z,3.97
2023-03-29T19:13:45.130Z,3.88
2023-03-29T19:18:47.593Z,4.25
2023-03-29T19:23:52.040Z,3.30
2023-03-29T19:28:54.499Z,4.30
2023-03-29T19:33:56.950Z,4.80
2023-03-29T19:39:00.877Z,3.70
2023-03-29T19:44:03.937Z,3.97
2023-03-29T19:49:06.904Z,5.43
2023-03-29T19:54:11.814Z,4.57
2023-03-29T19:59:14.294Z,4.00
2023-03-29T20:04:17.357Z,5.20
2023-03-29T20:09:21.377Z,5.78
2023-03-29T20:14:23.869Z,5.67
2023-03-29T20:19:26.483Z,6.43
2023-03-29T20:24:30.700Z,6.40
2023-03-29T20:29:33.178Z,5.72
2023-03-29T20:34:36.051Z,5.70
2023-03-29T20:39:40.086Z,4.70
2023-03-29T20:44:42.638Z,6.25
2023-03-29T20:49:47.782Z,6.00
2023-03-29T20:54:52.147Z,6.07
2023-03-29T20:59:54.522Z,7.18
2023-03-29T21:04:56.891Z,7.70
2023-03-29T21:10:00.796Z,7.35
2023-03-29T21:15:03.718Z,6.23
2023-03-29T21:20:08.812Z,6.75
2023-03-29T21:25:13.952Z,6.78
2023-03-29T21:30:16.643Z,6.83
2023-03-29T21:35:22.144Z,7.30
2023-03-29T21:40:25.997Z,7.03
2023-03-29T21:45:28.553Z,7.28
2023-03-29T21:50:34.252Z,7.93
2023-03-29T21:55:38.104Z,7.53
2023-03-29T22:00:41.015Z,6.95
2023-03-29T22:05:43.730Z,7.90
2023-03-29T22:10:48.084Z,6.57
2023-03-29T22:15:56.454Z,7.63
2023-03-29T22:20:58.868Z,7.33
2023-03-29T22:26:06.566Z,8.75
2023-03-29T22:31:12.121Z,7.80
2023-03-29T22:36:17.743Z,8.27
2023-03-29T22:41:24.539Z,7.70
2023-03-29T22:46:27.785Z,8.50
2023-03-29T22:51:30.630Z,8.85
2023-03-29T22:56:34.964Z,8.87
2023-03-29T23:01:37.663Z,8.65
2023-03-29T23:06:40.514Z,9.00
2023-03-29T23:11:44.336Z,9.30
2023-03-29T23:16:46.880Z,8.13
2023-03-29T23:21:49.422Z,9.07
2023-03-29T23:26:53.333Z,8.45
2023-03-29T23:31:55.982Z,8.70
2023-03-29T23:36:58.768Z,8.00
2023-03-29T23:42:03.102Z,8.45
2023-03-29T23:47:08.474Z,9.00
2023-03-29T23:52:11.143Z,8.63
2023-03-29T23:57:15.001Z,7.45
